Station: Cape Grim

  Atmospheric Gas Attenuation - ITU Rec 676-11   --------------- db/100km ---------------
Date Time Temp RH % AH g/m3 Dew Point Wind Direction Speed kph Gust kph Barometer mB Rainfall Since 9am 24GHz 47GHz 76GHz 122GHz 134GHz 241GHz
22 13:00 21.3 73 13.61 16.3 50 63 1023.1 0 29.8 32.2 56.6 149.2 155.6 539.4
22 12:50 20.5 73 12.99 15.5 50 57 1023.7 0 28.5 31.5 54.5 143.7 148.6 514.6
22 12:40 21.1 73 13.45 16.1 46 52 1023.7 0 29.5 32.0 56.1 147.8 153.9 533.1
22 12:30 20.7 74 13.32 15.9 48 61 1023.2 0 29.2 31.9 55.8 147.0 152.8 529.3
22 12:20 20.5 73 12.99 15.5 50 56 1023.9 0 28.5 31.5 54.5 143.7 148.6 514.7
22 12:10 20.6 73 13.06 15.6 46 54 1023.9 0 28.7 31.6 54.8 144.3 149.4 517.5
22 12:00 20.4 74 13.09 15.6 52 65 1024 0 28.7 31.7 55.0 145.0 150.2 520.3
22 11:50 20.5 73 12.99 15.5 46 54 1024.1 0 28.5 31.5 54.5 143.7 148.6 514.8
22 11:40 20.5 73 12.99 15.5 44 50 1024.1 0 28.5 31.5 54.5 143.7 148.6 514.8
22 11:30 20.3 75 13.19 15.7 48 65 1023.6 0 29.0 31.9 55.5 146.3 151.8 525.7
22 11:20 20.3 75 13.19 15.7 46 57 1024.3 0 29.0 31.9 55.6 146.4 151.8 526.0
22 11:10 20.7 74 13.32 15.9 48 56 1024.4 0 29.2 32.0 55.8 147.2 152.9 529.7
22 11:00 20 73 12.61 15 48 61 1023.8 0 27.8 31.0 53.3 140.3 144.2 499.4
22 10:50 19.9 74 12.71 15.1 46 54 1024.5 0 28.0 31.2 53.8 141.7 145.9 505.2
22 10:40 20.3 75 13.19 15.7 46 57 1024.6 0 29.0 31.9 55.6 146.5 151.9 526.1
22 10:30 19.8 74 12.64 15 46 57 1024 0 27.8 31.1 53.5 141.0 145.0 502.2
22 10:20 19.3 75 12.44 14.8 52 57 1024.7 0 27.4 31.0 53.1 139.7 143.3 495.9
22 10:10 19.6 79 13.34 15.9 43 48 1025 0 29.3 32.5 56.8 149.6 155.5 538.6
22 10:00 19 81 13.2 15.7 50 65 1024.4 0 29.1 32.4 56.5 149.0 154.6 535.5
22 09:50 19.1 78 12.79 15.2 48 56 1025.1 0 28.2 31.7 54.7 144.2 148.6 514.6
22 09:40 18.7 79 12.65 15 48 54 1025.1 0 27.9 31.6 54.4 143.3 147.4 510.3
22 09:30 18.7 79 12.65 15 44 56 1024.4 0 27.9 31.6 54.4 143.2 147.3 510.0
22 09:20 18.4 81 12.74 15.1 46 56 1025.2 0 28.1 31.9 55.0 144.9 149.3 516.8
22 09:10 18.4 81 12.74 15.1 43 54 1025.2 0 28.1 31.9 55.0 144.9 149.3 516.8
22 09:00 18.2 82 12.74 15.1 46 59 1024.5 0 28.2 31.9 55.1 145.2 149.6 517.9
22 08:50 18.2 83 12.9 15.3 46 56 1025.2 0 28.5 32.2 55.9 147.1 152.0 526.2
22 08:40 18.1 83 12.82 15.2 43 46 1025.2 0 28.3 32.1 55.6 146.4 151.0 522.9
22 08:30 18 82 12.59 14.9 46 57 1024.4 0 27.8 31.7 54.6 143.8 147.8 511.7
22 08:20 17.8 83 12.6 14.9 52 59 1025 0 27.9 31.8 54.8 144.4 148.4 513.7
22 08:10 17.9 84 12.82 15.2 41 50 1025.1 0 28.3 32.2 55.7 146.8 151.4 524.2
22 08:00 17.8 84 12.75 15.1 46 57 1024.2 0 28.2 32.1 55.4 146.0 150.5 521.0
22 07:50 17.6 83 12.45 14.7 52 61 1024.7 0 27.6 31.6 54.3 142.9 146.6 507.4
22 07:40 17.5 84 12.52 14.8 46 54 1024.9 0 27.7 31.8 54.7 144.0 147.8 511.7
22 07:30 17.5 85 12.67 15 50 59 1023.9 0 28.1 32.0 55.3 145.6 149.9 518.9
22 07:20 17.4 84 12.45 14.7 48 57 1024.5 0 27.6 31.7 54.4 143.3 147.0 508.7
22 07:10 17.4 85 12.6 14.9 46 59 1023.9 0 27.9 31.9 55.0 145.0 149.1 516.0
22 07:00 17.3 83 12.23 14.4 46 61 1023.7 0 27.1 31.3 53.5 140.8 143.9 498.0
22 06:50 17.2 84 12.3 14.5 52 61 1024.2 0 27.3 31.5 53.9 141.9 145.2 502.3
22 06:40 17.2 85 12.45 14.7 46 54 1024.3 0 27.6 31.7 54.5 143.6 147.4 509.9
22 06:30 17.1 85 12.37 14.6 48 61 1023.6 0 27.4 31.6 54.2 142.8 146.3 506.3
22 06:20 17.1 85 12.37 14.6 44 50 1024.2 0 27.4 31.6 54.2 142.9 146.4 506.5
22 06:10 16.9 86 12.37 14.5 48 56 1024.1 0 27.5 31.7 54.4 143.2 146.8 507.8
22 06:00 16.9 86 12.37 14.5 52 61 1024 0 27.5 31.7 54.4 143.2 146.7 507.7
22 05:50 17 86 12.44 14.6 39 50 1024.3 0 27.6 31.8 54.6 143.9 147.6 510.7
22 05:40 17 86 12.44 14.6 50 56 1024.3 0 27.6 31.8 54.6 143.9 147.6 510.7
22 05:20 16.7 87 12.36 14.5 37 43 1024.4 0 27.4 31.8 54.5 143.5 147.0 508.7
22 05:10 16.8 86 12.29 14.4 37 43 1024.6 0 27.3 31.6 54.1 142.5 145.8 504.6
22 05:00 16.8 86 12.29 14.4 37 50 1024 0 27.3 31.6 54.1 142.5 145.8 504.4
22 04:50 16.8 88 12.58 14.8 32 37 1024.7 0 27.9 32.1 55.4 146.0 150.1 519.3
22 04:40 16.8 87 12.44 14.6 41 46 1024.6 0 27.6 31.9 54.8 144.3 148.0 512.2
22 04:30 16.7 88 12.51 14.7 39 54 1023.9 0 27.8 32.0 55.1 145.2 149.2 516.1
22 04:20 16.6 87 12.29 14.4 33 37 1024.7 0 27.3 31.7 54.3 142.9 146.2 505.9
22 04:10 16.5 88 12.36 14.5 39 44 1024.7 0 27.5 31.9 54.6 143.9 147.5 510.2
22 04:00 16.3 88 12.21 14.3 33 46 1024.2 0 27.1 31.6 54.1 142.5 145.6 503.7
22 03:50 16.3 88 12.21 14.3 32 35 1025.1 0 27.1 31.7 54.1 142.6 145.7 504.0
22 03:40 16.4 87 12.14 14.2 35 37 1025.1 0 27.0 31.5 53.8 141.6 144.5 499.8
22 03:30 16.5 87 12.22 14.3 37 46 1024.4 0 27.2 31.6 54.0 142.2 145.4 502.9
22 03:20 16.4 89 12.42 14.6 33 41 1025.2 0 27.6 32.0 55.0 144.9 148.6 514.1
22 03:10 16.5 89 12.5 14.7 39 46 1025.3 0 27.8 32.1 55.3 145.7 149.6 517.5
22 03:00 16.6 89 12.57 14.8 37 43 1025.5 0 27.9 32.2 55.6 146.3 150.4 520.5
22 02:50 16.8 89 12.72 15 39 41 1025.7 0 28.2 32.4 56.1 147.8 152.2 526.9
22 02:40 16.8 88 12.58 14.8 39 43 1025.9 0 27.9 32.2 55.5 146.1 150.2 519.8
22 02:30 16.7 88 12.51 14.7 33 46 1025.3 0 27.8 32.1 55.2 145.4 149.3 516.7
22 02:20 16.7 88 12.51 14.7 33 41 1026.1 0 27.8 32.1 55.2 145.5 149.4 517.0
22 02:10 16.8 88 12.58 14.8 35 44 1026.3 0 27.9 32.2 55.5 146.2 150.3 520.0
22 02:00 16.6 88 12.43 14.6 33 44 1025.7 0 27.6 32.0 54.9 144.7 148.4 513.4
22 01:50 16.7 90 12.79 15.1 37 41 1026.5 0 28.4 32.6 56.5 148.9 153.6 531.5
22 01:40 16.3 92 12.76 15 30 35 1026.6 0 28.3 32.7 56.7 149.3 153.9 532.7
22 01:30 16.2 93 12.82 15.1 30 39 1026.1 0 28.5 32.9 57.0 150.2 155.0 536.3
22 01:20 16 93 12.67 14.9 28 30 1026.9 0 28.1 32.7 56.5 148.9 153.2 530.3
22 01:10 16.1 93 12.75 15 24 30 1027.2 0 28.3 32.8 56.8 149.7 154.3 533.9
22 01:00 16.1 93 12.75 15 26 33 1026.5 0 28.3 32.8 56.8 149.6 154.2 533.6
22 00:50 16.1 92 12.61 14.8 24 28 1027.2 0 28.0 32.6 56.2 148.0 152.2 526.6
22 00:40 16.3 92 12.76 15 28 32 1027.2 0 28.3 32.8 56.7 149.4 154.0 533.0
22 00:30 16.3 93 12.9 15.2 28 37 1026.5 0 28.6 33.0 57.3 151.0 156.0 539.9
22 00:20 16.3 92 12.76 15 28 32 1027.1 0 28.3 32.8 56.7 149.4 154.0 532.9
22 00:10 16.4 92 12.84 15.1 30 32 1027.2 0 28.5 32.9 57.0 150.2 155.0 536.4
22 00:00 16.4 92 12.84 15.1 32 37 1026.4 0 28.5 32.8 57.0 150.1 154.9 536.1
21 23:50 16.3 91 12.62 14.8 28 30 1027.1 0 28.0 32.5 56.1 147.7 151.9 525.7
21 23:40 16.6 91 12.85 15.1 33 39 1027.3 0 28.5 32.8 56.9 149.9 154.7 535.6
21 23:30 16.5 91 12.78 15 32 37 1026.7 0 28.3 32.7 56.6 149.2 153.8 532.4
21 23:20 16.5 91 12.78 15 32 39 1027.4 0 28.3 32.7 56.7 149.3 153.9 532.7
21 23:10 16.5 91 12.78 15 32 33 1027.5 0 28.3 32.7 56.7 149.3 153.9 532.7
21 23:00 16.6 91 12.85 15.1 32 39 1026.7 0 28.5 32.8 56.9 149.8 154.7 535.3
21 22:50 16.5 90 12.64 14.9 32 37 1027.4 0 28.0 32.5 56.0 147.6 151.9 525.5
21 22:40 16.5 91 12.78 15 32 35 1027.5 0 28.3 32.7 56.7 149.3 153.9 532.7
21 22:30 16.5 90 12.64 14.9 30 39 1027 0 28.0 32.5 56.0 147.5 151.8 525.3
21 22:20 16.6 90 12.71 15 33 39 1027.7 0 28.2 32.6 56.3 148.3 152.7 528.5
21 22:10 16.5 90 12.64 14.9 32 37 1027.7 0 28.0 32.5 56.1 147.6 151.9 525.6
21 22:00 16.7 90 12.79 15.1 32 41 1027 0 28.4 32.7 56.5 149.0 153.6 531.7
21 21:50 16.7 90 12.79 15.1 32 43 1027.6 0 28.4 32.7 56.6 149.0 153.7 531.9
21 21:40 16.8 90 12.87 15.2 33 37 1027.6 0 28.5 32.8 56.9 149.8 154.7 535.3
21 21:30 16.7 89 12.65 14.9 32 41 1027 0 28.1 32.4 55.9 147.3 151.6 524.5
21 21:20 16.8 89 12.72 15 30 33 1027.5 0 28.2 32.5 56.2 148.0 152.4 527.6
21 21:10 16.8 88 12.58 14.8 33 39 1027.3 0 27.9 32.2 55.6 146.3 150.4 520.3
21 21:00 16.9 88 12.66 14.9 35 44 1026.6 0 28.1 32.3 55.8 147.0 151.3 523.5
21 20:50 16.9 87 12.51 14.7 33 35 1027.2 0 27.7 32.1 55.2 145.3 149.1 516.1
21 20:40 17 86 12.44 14.6 32 35 1027.4 0 27.6 31.9 54.8 144.3 147.9 511.9
21 20:30 17.1 85 12.37 14.6 32 41 1026.7 0 27.4 31.7 54.4 143.2 146.7 507.5
21 20:20 17.3 84 12.37 14.6 32 39 1027.3 0 27.4 31.7 54.3 142.9 146.3 506.4

Last Refresh: 22-Jan-2022 12:41:52

Bureau of Meteorology